Happy Puppy — CFN5446 — position and weather

sailwx.info

Track history (hours):
 
Tides and Currents Weather Stations Pressure Air Temp Water Temp Dewpoint Dewpoint Depression Visibility Wind Speed Wind Dir Waves Ship Positions

Happy Puppy

Last reported at 2015-Oct-05 02:18 UTC. Time now 2016-Jun-01 03:37 UTC.
Position N 44°14' W 076°25'.
Warning: this ship's position is months out of date.

Length 11 m.

Type: Pleasure craft. MMSI: 316018857.

Date/timePositionNaut miles runAvg speedWind from/ knotsBaromVisibWave heightAir tempDewpointWater temp
2015-Oct-05 02:18N 44°14' W 076°25'0 0.3
2015-Oct-05 01:33N 44°14' W 076°25'0 0.0
2015-Oct-05 00:33N 44°14' W 076°25'0 0.0
2015-Oct-04 23:33N 44°14' W 076°25'0 0.0
2015-Oct-04 22:33N 44°14' W 076°25'0 0.0
2015-Oct-04 21:33N 44°14' W 076°25'0 0.0
2015-Oct-04 20:33N 44°14' W 076°25'0 0.0
2015-Oct-04 19:34N 44°14' W 076°25'1 0.8
2015-Oct-04 18:34N 44°14' W 076°24'2 1.6
2015-Oct-04 17:34N 44°14' W 076°26'3 2.9
2015-Oct-04 16:34N 44°14' W 076°23'1 1.3
2015-Oct-04 15:34N 44°14' W 076°24'1 0.9
2015-Oct-04 14:34N 44°14' W 076°25'2 2.5
2015-Oct-04 13:34N 44°14' W 076°22'3 3.2
2015-Oct-04 12:34N 44°14' W 076°26'0 0.4
2015-Oct-04 11:34N 44°14' W 076°26'0 0.3
2015-Oct-04 10:34N 44°14' W 076°25'2 2.5
2015-Oct-04 09:34N 44°14' W 076°22'3 2.7
2015-Oct-04 08:34N 44°14' W 076°26'0 0.3
2015-Oct-04 07:34N 44°14' W 076°26'1 0.6
2015-Oct-04 06:34N 44°14' W 076°25'3 2.5
2015-Oct-04 05:34N 44°14' W 076°22'0 0.0
2015-Oct-04 04:34N 44°14' W 076°22'3 2.5
2015-Oct-04 03:34N 44°14' W 076°25'1 0.7
2015-Oct-04 02:34N 44°14' W 076°26'0 0.4
2015-Oct-04 01:34N 44°14' W 076°26'2 1.6
2015-Oct-04 00:34N 44°14' W 076°24'2 2.1
2015-Oct-03 23:34N 44°14' W 076°26'3 2.9
2015-Oct-03 22:34N 44°14' W 076°23'0 0.5
2015-Oct-03 21:34N 44°14' W 076°22'0 0.0
2015-Oct-03 20:34N 44°14' W 076°22'1 1.2
2015-Oct-03 19:34N 44°14' W 076°24'0 0.0
2015-Oct-03 18:34N 44°14' W 076°24'1 1.2
2015-Oct-03 17:34N 44°14' W 076°22'2 1.8
2015-Oct-03 16:33N 44°14' W 076°24'5 4.9
2015-Oct-03 15:31N 44°12' W 076°31'  
2015-Sep-27 08:04N 44°14' W 076°36'0 0.0
2015-Sep-27 06:14N 44°14' W 076°36'0 0.0
2015-Sep-27 05:07N 44°14' W 076°36'0 0.0
2015-Sep-27 04:32N 44°14' W 076°36'0 0.0
2015-Sep-27 03:32N 44°14' W 076°36'0 0.0
2015-Sep-27 02:18N 44°14' W 076°36'0 0.0
2015-Sep-27 01:28N 44°14' W 076°36'0 0.0
2015-Sep-26 23:16N 44°14' W 076°36'0 0.0
2015-Sep-26 22:30N 44°14' W 076°36'2 0.9
2015-Sep-26 20:30N 44°13' W 076°36'5 5.2
2015-Sep-26 19:32N 44°13' W 076°29'0 0.4
2015-Sep-26 18:32N 44°13' W 076°29'2 1.9
2015-Sep-26 17:33N 44°13' W 076°27'3 2.8
2015-Sep-26 16:31N 44°13' W 076°31'1 1.5
2015-Sep-26 15:33N 44°12' W 076°29'1 1.5
2015-Sep-26 14:33N 44°13' W 076°29'1 1.3
2015-Sep-26 13:27N 44°13' W 076°31'4 3.4
2015-Sep-26 12:13N 44°14' W 076°36'  
Track history (hours):
 
Tides and Currents Weather Stations Pressure Air Temp Water Temp Dewpoint Dewpoint Depression Visibility Wind Speed Wind Dir Waves Ship Positions

Happy Puppy

Last reported at 2015-Oct-05 02:18 UTC. Time now 2016-Jun-01 03:37 UTC.
Position N 44°14' W 076°25'.
Warning: this ship's position is months out of date.

Length 11 m.

Type: Pleasure craft. MMSI: 316018857.

Date/timePositionNaut miles runAvg speedWind from/ knotsBaromVisibWave heightAir tempDewpointWater temp
2015-Oct-05 02:18N 44°14' W 076°25'0 0.3
2015-Oct-05 01:33N 44°14' W 076°25'0 0.0
2015-Oct-05 00:33N 44°14' W 076°25'0 0.0
2015-Oct-04 23:33N 44°14' W 076°25'0 0.0
2015-Oct-04 22:33N 44°14' W 076°25'0 0.0
2015-Oct-04 21:33N 44°14' W 076°25'0 0.0
2015-Oct-04 20:33N 44°14' W 076°25'0 0.0
2015-Oct-04 19:34N 44°14' W 076°25'1 0.8
2015-Oct-04 18:34N 44°14' W 076°24'2 1.6
2015-Oct-04 17:34N 44°14' W 076°26'3 2.9
2015-Oct-04 16:34N 44°14' W 076°23'1 1.3
2015-Oct-04 15:34N 44°14' W 076°24'1 0.9
2015-Oct-04 14:34N 44°14' W 076°25'2 2.5
2015-Oct-04 13:34N 44°14' W 076°22'3 3.2
2015-Oct-04 12:34N 44°14' W 076°26'0 0.4
2015-Oct-04 11:34N 44°14' W 076°26'0 0.3
2015-Oct-04 10:34N 44°14' W 076°25'2 2.5
2015-Oct-04 09:34N 44°14' W 076°22'3 2.7
2015-Oct-04 08:34N 44°14' W 076°26'0 0.3
2015-Oct-04 07:34N 44°14' W 076°26'1 0.6
2015-Oct-04 06:34N 44°14' W 076°25'3 2.5
2015-Oct-04 05:34N 44°14' W 076°22'0 0.0
2015-Oct-04 04:34N 44°14' W 076°22'3 2.5
2015-Oct-04 03:34N 44°14' W 076°25'1 0.7
2015-Oct-04 02:34N 44°14' W 076°26'0 0.4
2015-Oct-04 01:34N 44°14' W 076°26'2 1.6
2015-Oct-04 00:34N 44°14' W 076°24'2 2.1
2015-Oct-03 23:34N 44°14' W 076°26'3 2.9
2015-Oct-03 22:34N 44°14' W 076°23'0 0.5
2015-Oct-03 21:34N 44°14' W 076°22'0 0.0
2015-Oct-03 20:34N 44°14' W 076°22'1 1.2
2015-Oct-03 19:34N 44°14' W 076°24'0 0.0
2015-Oct-03 18:34N 44°14' W 076°24'1 1.2
2015-Oct-03 17:34N 44°14' W 076°22'2 1.8
2015-Oct-03 16:33N 44°14' W 076°24'5 4.9
2015-Oct-03 15:31N 44°12' W 076°31'  
2015-Sep-27 08:04N 44°14' W 076°36'0 0.0
2015-Sep-27 06:14N 44°14' W 076°36'0 0.0
2015-Sep-27 05:07N 44°14' W 076°36'0 0.0
2015-Sep-27 04:32N 44°14' W 076°36'0 0.0
2015-Sep-27 03:32N 44°14' W 076°36'0 0.0
2015-Sep-27 02:18N 44°14' W 076°36'0 0.0
2015-Sep-27 01:28N 44°14' W 076°36'0 0.0
2015-Sep-26 23:16N 44°14' W 076°36'0 0.0
2015-Sep-26 22:30N 44°14' W 076°36'2 0.9
2015-Sep-26 20:30N 44°13' W 076°36'5 5.2
2015-Sep-26 19:32N 44°13' W 076°29'0 0.4
2015-Sep-26 18:32N 44°13' W 076°29'2 1.9
2015-Sep-26 17:33N 44°13' W 076°27'3 2.8
2015-Sep-26 16:31N 44°13' W 076°31'1 1.5
2015-Sep-26 15:33N 44°12' W 076°29'1 1.5
2015-Sep-26 14:33N 44°13' W 076°29'1 1.3
2015-Sep-26 13:27N 44°13' W 076°31'4 3.4
2015-Sep-26 12:13N 44°14' W 076°36'  

Dump ship's entire track history